sensor_id;sensor_type;location;lat;lon;timestamp;P1;durP1;ratioP1;P2;durP2;ratioP2
15536;SDS011;7870;52.448;13.270;2023-07-22T00:02:16;10.68;;;6.72;;
15536;SDS011;7870;52.448;13.270;2023-07-22T00:05:06;9.40;;;7.07;;
15536;SDS011;7870;52.448;13.270;2023-07-22T00:07:53;9.13;;;7.35;;
15536;SDS011;7870;52.448;13.270;2023-07-22T00:10:41;8.77;;;7.03;;
15536;SDS011;7870;52.448;13.270;2023-07-22T00:13:28;8.88;;;7.65;;
15536;SDS011;7870;52.448;13.270;2023-07-22T00:16:19;8.60;;;7.55;;
15536;SDS011;7870;52.448;13.270;2023-07-22T00:19:16;10.85;;;7.88;;
15536;SDS011;7870;52.448;13.270;2023-07-22T00:22:42;9.20;;;8.27;;
15536;SDS011;7870;52.448;13.270;2023-07-22T00:26:07;13.63;;;8.52;;
15536;SDS011;7870;52.448;13.270;2023-07-22T00:29:35;11.13;;;8.52;;
15536;SDS011;7870;52.448;13.270;2023-07-22T00:33:01;9.88;;;8.40;;
15536;SDS011;7870;52.448;13.270;2023-07-22T00:36:16;12.23;;;9.75;;
15536;SDS011;7870;52.448;13.270;2023-07-22T00:39:04;11.63;;;9.15;;
15536;SDS011;7870;52.448;13.270;2023-07-22T00:41:51;12.25;;;9.38;;
15536;SDS011;7870;52.448;13.270;2023-07-22T00:44:38;12.73;;;9.32;;
15536;SDS011;7870;52.448;13.270;2023-07-22T00:47:25;10.77;;;8.85;;
15536;SDS011;7870;52.448;13.270;2023-07-22T00:50:12;11.13;;;9.30;;
15536;SDS011;7870;52.448;13.270;2023-07-22T00:52:59;13.60;;;10.00;;
15536;SDS011;7870;52.448;13.270;2023-07-22T00:55:46;12.65;;;9.15;;
15536;SDS011;7870;52.448;13.270;2023-07-22T00:58:34;11.57;;;9.20;;
15536;SDS011;7870;52.448;13.270;2023-07-22T01:01:21;11.85;;;10.32;;
15536;SDS011;7870;52.448;13.270;2023-07-22T01:04:08;11.55;;;10.45;;
15536;SDS011;7870;52.448;13.270;2023-07-22T01:06:55;14.85;;;11.07;;
15536;SDS011;7870;52.448;13.270;2023-07-22T01:09:43;11.20;;;9.93;;
15536;SDS011;7870;52.448;13.270;2023-07-22T01:12:32;13.07;;;10.20;;
15536;SDS011;7870;52.448;13.270;2023-07-22T01:15:19;15.55;;;13.02;;
15536;SDS011;7870;52.448;13.270;2023-07-22T01:18:06;12.70;;;11.00;;
15536;SDS011;7870;52.448;13.270;2023-07-22T01:20:53;12.32;;;10.70;;
15536;SDS011;7870;52.448;13.270;2023-07-22T01:23:41;11.65;;;10.35;;
15536;SDS011;7870;52.448;13.270;2023-07-22T01:26:29;11.25;;;9.80;;
15536;SDS011;7870;52.448;13.270;2023-07-22T01:29:16;11.30;;;10.20;;
15536;SDS011;7870;52.448;13.270;2023-07-22T01:32:03;11.20;;;10.00;;
15536;SDS011;7870;52.448;13.270;2023-07-22T01:34:50;13.95;;;10.10;;
15536;SDS011;7870;52.448;13.270;2023-07-22T01:37:37;12.23;;;9.20;;
15536;SDS011;7870;52.448;13.270;2023-07-22T01:40:25;11.60;;;9.75;;
15536;SDS011;7870;52.448;13.270;2023-07-22T01:43:12;10.57;;;9.48;;
15536;SDS011;7870;52.448;13.270;2023-07-22T01:46:37;12.38;;;9.40;;
15536;SDS011;7870;52.448;13.270;2023-07-22T01:50:03;10.73;;;9.63;;
15536;SDS011;7870;52.448;13.270;2023-07-22T01:53:27;11.82;;;9.82;;
15536;SDS011;7870;52.448;13.270;2023-07-22T01:56:52;12.68;;;9.93;;
15536;SDS011;7870;52.448;13.270;2023-07-22T02:00:17;11.05;;;9.80;;
15536;SDS011;7870;52.448;13.270;2023-07-22T02:03:42;13.50;;;9.45;;
15536;SDS011;7870;52.448;13.270;2023-07-22T02:06:33;11.38;;;9.75;;
15536;SDS011;7870;52.448;13.270;2023-07-22T02:09:21;10.90;;;9.43;;
15536;SDS011;7870;52.448;13.270;2023-07-22T02:12:45;11.50;;;10.18;;
15536;SDS011;7870;52.448;13.270;2023-07-22T02:15:33;12.05;;;9.55;;
15536;SDS011;7870;52.448;13.270;2023-07-22T02:18:20;10.95;;;9.65;;
15536;SDS011;7870;52.448;13.270;2023-07-22T02:21:08;11.65;;;10.00;;
15536;SDS011;7870;52.448;13.270;2023-07-22T02:23:55;12.02;;;9.13;;
15536;SDS011;7870;52.448;13.270;2023-07-22T02:26:42;10.73;;;9.35;;
15536;SDS011;7870;52.448;13.270;2023-07-22T02:29:29;12.68;;;9.02;;
15536;SDS011;7870;52.448;13.270;2023-07-22T02:32:18;12.70;;;9.43;;
15536;SDS011;7870;52.448;13.270;2023-07-22T02:35:08;10.30;;;9.02;;
15536;SDS011;7870;52.448;13.270;2023-07-22T02:38:02;10.48;;;8.70;;
15536;SDS011;7870;52.448;13.270;2023-07-22T02:40:49;13.55;;;10.02;;
15536;SDS011;7870;52.448;13.270;2023-07-22T02:43:37;10.32;;;8.73;;
15536;SDS011;7870;52.448;13.270;2023-07-22T02:46:24;9.82;;;8.90;;
15536;SDS011;7870;52.448;13.270;2023-07-22T02:49:11;10.50;;;8.88;;
15536;SDS011;7870;52.448;13.270;2023-07-22T02:51:58;11.65;;;8.35;;
15536;SDS011;7870;52.448;13.270;2023-07-22T02:54:54;10.60;;;8.13;;
15536;SDS011;7870;52.448;13.270;2023-07-22T02:57:50;9.40;;;8.35;;
15536;SDS011;7870;52.448;13.270;2023-07-22T03:00:47;11.75;;;7.78;;
15536;SDS011;7870;52.448;13.270;2023-07-22T03:03:38;10.50;;;8.88;;
15536;SDS011;7870;52.448;13.270;2023-07-22T03:06:25;9.95;;;8.13;;
15536;SDS011;7870;52.448;13.270;2023-07-22T03:09:12;8.85;;;7.72;;
15536;SDS011;7870;52.448;13.270;2023-07-22T03:12:00;8.38;;;7.53;;
15536;SDS011;7870;52.448;13.270;2023-07-22T03:14:47;9.45;;;7.35;;
15536;SDS011;7870;52.448;13.270;2023-07-22T03:17:35;10.60;;;7.57;;
15536;SDS011;7870;52.448;13.270;2023-07-22T03:23:14;9.70;;;6.18;;
15536;SDS011;7870;52.448;13.270;2023-07-22T03:26:01;8.35;;;6.90;;
15536;SDS011;7870;52.448;13.270;2023-07-22T03:28:48;9.02;;;5.97;;
15536;SDS011;7870;52.448;13.270;2023-07-22T03:31:35;7.72;;;6.30;;
15536;SDS011;7870;52.448;13.270;2023-07-22T03:34:33;6.75;;;5.72;;
15536;SDS011;7870;52.448;13.270;2023-07-22T03:37:45;9.35;;;5.82;;
15536;SDS011;7870;52.448;13.270;2023-07-22T03:41:09;6.85;;;5.40;;
15536;SDS011;7870;52.448;13.270;2023-07-22T03:44:35;7.63;;;5.50;;
15536;SDS011;7870;52.448;13.270;2023-07-22T03:47:59;10.95;;;5.90;;
15536;SDS011;7870;52.448;13.270;2023-07-22T03:51:24;6.60;;;5.28;;
15536;SDS011;7870;52.448;13.270;2023-07-22T03:54:50;7.13;;;5.00;;
15536;SDS011;7870;52.448;13.270;2023-07-22T03:58:15;8.88;;;4.60;;
15536;SDS011;7870;52.448;13.270;2023-07-22T04:01:41;5.63;;;4.55;;
15536;SDS011;7870;52.448;13.270;2023-07-22T04:05:06;5.93;;;4.68;;
15536;SDS011;7870;52.448;13.270;2023-07-22T04:08:31;6.40;;;4.68;;
15536;SDS011;7870;52.448;13.270;2023-07-22T04:11:56;5.35;;;4.32;;
15536;SDS011;7870;52.448;13.270;2023-07-22T04:15:21;6.63;;;4.55;;
15536;SDS011;7870;52.448;13.270;2023-07-22T04:18:46;6.60;;;5.20;;
15536;SDS011;7870;52.448;13.270;2023-07-22T04:22:12;7.78;;;4.30;;
15536;SDS011;7870;52.448;13.270;2023-07-22T04:25:38;6.75;;;4.97;;
15536;SDS011;7870;52.448;13.270;2023-07-22T04:29:03;7.50;;;4.85;;
15536;SDS011;7870;52.448;13.270;2023-07-22T04:32:29;8.13;;;6.43;;
15536;SDS011;7870;52.448;13.270;2023-07-22T04:35:55;6.90;;;5.60;;
15536;SDS011;7870;52.448;13.270;2023-07-22T04:39:21;7.55;;;5.30;;
15536;SDS011;7870;52.448;13.270;2023-07-22T04:42:44;8.18;;;5.53;;
15536;SDS011;7870;52.448;13.270;2023-07-22T04:45:32;6.55;;;5.53;;
15536;SDS011;7870;52.448;13.270;2023-07-22T04:48:20;6.63;;;4.90;;
15536;SDS011;7870;52.448;13.270;2023-07-22T04:51:10;9.98;;;6.30;;
15536;SDS011;7870;52.448;13.270;2023-07-22T04:53:58;10.25;;;6.30;;
15536;SDS011;7870;52.448;13.270;2023-07-22T04:56:45;9.00;;;6.30;;
15536;SDS011;7870;52.448;13.270;2023-07-22T04:59:33;7.75;;;6.22;;
15536;SDS011;7870;52.448;13.270;2023-07-22T05:02:40;7.97;;;6.28;;
15536;SDS011;7870;52.448;13.270;2023-07-22T05:05:28;9.73;;;7.07;;
15536;SDS011;7870;52.448;13.270;2023-07-22T05:08:18;8.48;;;7.10;;
15536;SDS011;7870;52.448;13.270;2023-07-22T05:11:43;12.65;;;7.43;;
15536;SDS011;7870;52.448;13.270;2023-07-22T05:15:12;8.07;;;7.28;;
15536;SDS011;7870;52.448;13.270;2023-07-22T05:18:38;9.63;;;7.85;;
15536;SDS011;7870;52.448;13.270;2023-07-22T05:22:03;11.73;;;8.15;;
15536;SDS011;7870;52.448;13.270;2023-07-22T05:25:28;10.50;;;7.72;;
15536;SDS011;7870;52.448;13.270;2023-07-22T05:28:54;10.30;;;7.32;;
15536;SDS011;7870;52.448;13.270;2023-07-22T05:32:19;13.52;;;8.27;;
15536;SDS011;7870;52.448;13.270;2023-07-22T05:35:44;10.77;;;7.80;;
15536;SDS011;7870;52.448;13.270;2023-07-22T05:39:09;10.43;;;8.70;;
15536;SDS011;7870;52.448;13.270;2023-07-22T05:42:35;13.43;;;7.63;;
15536;SDS011;7870;52.448;13.270;2023-07-22T05:45:59;12.40;;;7.57;;
15536;SDS011;7870;52.448;13.270;2023-07-22T05:49:24;11.70;;;7.65;;
15536;SDS011;7870;52.448;13.270;2023-07-22T05:52:49;9.90;;;7.28;;
15536;SDS011;7870;52.448;13.270;2023-07-22T05:56:14;13.90;;;7.85;;
15536;SDS011;7870;52.448;13.270;2023-07-22T05:59:39;14.45;;;7.30;;
15536;SDS011;7870;52.448;13.270;2023-07-22T06:03:05;9.32;;;7.13;;
15536;SDS011;7870;52.448;13.270;2023-07-22T06:06:30;7.93;;;5.90;;
15536;SDS011;7870;52.448;13.270;2023-07-22T06:09:55;7.80;;;6.07;;
15536;SDS011;7870;52.448;13.270;2023-07-22T06:13:20;11.40;;;6.18;;
15536;SDS011;7870;52.448;13.270;2023-07-22T06:16:45;10.98;;;5.70;;
15536;SDS011;7870;52.448;13.270;2023-07-22T06:20:11;7.47;;;5.20;;
15536;SDS011;7870;52.448;13.270;2023-07-22T06:23:36;8.13;;;5.05;;
15536;SDS011;7870;52.448;13.270;2023-07-22T06:27:02;7.88;;;4.72;;
15536;SDS011;7870;52.448;13.270;2023-07-22T06:30:27;6.78;;;4.38;;
15536;SDS011;7870;52.448;13.270;2023-07-22T06:33:57;6.65;;;3.70;;
15536;SDS011;7870;52.448;13.270;2023-07-22T06:37:23;11.00;;;4.57;;
15536;SDS011;7870;52.448;13.270;2023-07-22T06:40:48;7.00;;;4.13;;
15536;SDS011;7870;52.448;13.270;2023-07-22T06:44:13;8.05;;;3.78;;
15536;SDS011;7870;52.448;13.270;2023-07-22T06:47:38;7.80;;;4.00;;
15536;SDS011;7870;52.448;13.270;2023-07-22T06:51:03;5.43;;;3.50;;
15536;SDS011;7870;52.448;13.270;2023-07-22T06:54:28;8.60;;;4.70;;
15536;SDS011;7870;52.448;13.270;2023-07-22T06:57:55;5.35;;;3.85;;
15536;SDS011;7870;52.448;13.270;2023-07-22T07:01:20;5.75;;;3.58;;
15536;SDS011;7870;52.448;13.270;2023-07-22T07:04:45;8.07;;;4.38;;
15536;SDS011;7870;52.448;13.270;2023-07-22T07:08:10;7.43;;;4.32;;
15536;SDS011;7870;52.448;13.270;2023-07-22T07:11:35;6.05;;;3.92;;
15536;SDS011;7870;52.448;13.270;2023-07-22T07:15:00;10.30;;;3.85;;
15536;SDS011;7870;52.448;13.270;2023-07-22T07:18:45;6.20;;;4.13;;
15536;SDS011;7870;52.448;13.270;2023-07-22T07:22:11;6.13;;;4.40;;
15536;SDS011;7870;52.448;13.270;2023-07-22T07:25:36;6.50;;;4.75;;
15536;SDS011;7870;52.448;13.270;2023-07-22T07:29:01;5.90;;;4.10;;
15536;SDS011;7870;52.448;13.270;2023-07-22T07:32:26;8.27;;;3.53;;
15536;SDS011;7870;52.448;13.270;2023-07-22T07:35:51;7.28;;;4.35;;
15536;SDS011;7870;52.448;13.270;2023-07-22T07:39:16;8.15;;;3.80;;
15536;SDS011;7870;52.448;13.270;2023-07-22T07:42:41;7.47;;;4.32;;
15536;SDS011;7870;52.448;13.270;2023-07-22T07:46:20;7.20;;;4.45;;
15536;SDS011;7870;52.448;13.270;2023-07-22T07:49:46;6.95;;;4.45;;
15536;SDS011;7870;52.448;13.270;2023-07-22T07:53:11;5.68;;;3.60;;
15536;SDS011;7870;52.448;13.270;2023-07-22T07:56:36;5.68;;;3.80;;
15536;SDS011;7870;52.448;13.270;2023-07-22T08:00:01;8.73;;;4.35;;
15536;SDS011;7870;52.448;13.270;2023-07-22T08:03:26;6.22;;;3.90;;
15536;SDS011;7870;52.448;13.270;2023-07-22T08:06:51;6.72;;;4.20;;
15536;SDS011;7870;52.448;13.270;2023-07-22T08:10:16;6.07;;;3.70;;
15536;SDS011;7870;52.448;13.270;2023-07-22T08:13:42;6.30;;;3.65;;
15536;SDS011;7870;52.448;13.270;2023-07-22T08:17:08;5.47;;;3.63;;
15536;SDS011;7870;52.448;13.270;2023-07-22T08:20:33;7.25;;;4.10;;
15536;SDS011;7870;52.448;13.270;2023-07-22T08:23:58;5.13;;;3.50;;
15536;SDS011;7870;52.448;13.270;2023-07-22T08:27:23;4.82;;;3.50;;
15536;SDS011;7870;52.448;13.270;2023-07-22T08:30:48;5.65;;;3.63;;
15536;SDS011;7870;52.448;13.270;2023-07-22T08:34:13;5.85;;;4.00;;
15536;SDS011;7870;52.448;13.270;2023-07-22T08:37:38;5.78;;;3.80;;
15536;SDS011;7870;52.448;13.270;2023-07-22T08:41:03;7.60;;;4.75;;
15536;SDS011;7870;52.448;13.270;2023-07-22T08:44:29;6.63;;;4.05;;
15536;SDS011;7870;52.448;13.270;2023-07-22T08:47:58;9.18;;;3.65;;
15536;SDS011;7870;52.448;13.270;2023-07-22T08:51:24;5.40;;;3.30;;
15536;SDS011;7870;52.448;13.270;2023-07-22T08:54:49;6.65;;;3.90;;
15536;SDS011;7870;52.448;13.270;2023-07-22T08:58:14;5.32;;;3.55;;
15536;SDS011;7870;52.448;13.270;2023-07-22T09:01:40;5.95;;;3.70;;
15536;SDS011;7870;52.448;13.270;2023-07-22T09:05:06;6.60;;;3.65;;
15536;SDS011;7870;52.448;13.270;2023-07-22T09:08:32;6.05;;;3.50;;
15536;SDS011;7870;52.448;13.270;2023-07-22T09:11:58;6.18;;;3.25;;
15536;SDS011;7870;52.448;13.270;2023-07-22T09:15:25;4.85;;;3.13;;
15536;SDS011;7870;52.448;13.270;2023-07-22T09:18:57;5.57;;;3.08;;
15536;SDS011;7870;52.448;13.270;2023-07-22T09:22:25;5.97;;;3.13;;
15536;SDS011;7870;52.448;13.270;2023-07-22T09:26:10;5.78;;;3.35;;
15536;SDS011;7870;52.448;13.270;2023-07-22T09:29:36;4.85;;;3.00;;
15536;SDS011;7870;52.448;13.270;2023-07-22T09:33:03;7.47;;;3.88;;
15536;SDS011;7870;52.448;13.270;2023-07-22T09:40:34;5.10;;;2.90;;
15536;SDS011;7870;52.448;13.270;2023-07-22T09:44:03;6.30;;;3.28;;
15536;SDS011;7870;52.448;13.270;2023-07-22T09:47:28;5.72;;;3.00;;
15536;SDS011;7870;52.448;13.270;2023-07-22T09:50:56;4.55;;;3.45;;
15536;SDS011;7870;52.448;13.270;2023-07-22T09:54:28;4.95;;;2.92;;
15536;SDS011;7870;52.448;13.270;2023-07-22T09:57:57;4.40;;;2.90;;
15536;SDS011;7870;52.448;13.270;2023-07-22T10:01:26;4.45;;;2.78;;
15536;SDS011;7870;52.448;13.270;2023-07-22T10:04:52;5.72;;;3.17;;
15536;SDS011;7870;52.448;13.270;2023-07-22T10:08:18;4.68;;;2.80;;
15536;SDS011;7870;52.448;13.270;2023-07-22T10:11:43;6.82;;;3.25;;
15536;SDS011;7870;52.448;13.270;2023-07-22T10:15:09;4.00;;;2.58;;
15536;SDS011;7870;52.448;13.270;2023-07-22T10:18:35;5.82;;;3.20;;
15536;SDS011;7870;52.448;13.270;2023-07-22T10:22:01;5.07;;;3.20;;
15536;SDS011;7870;52.448;13.270;2023-07-22T10:25:27;4.25;;;3.03;;
15536;SDS011;7870;52.448;13.270;2023-07-22T10:29:12;4.20;;;2.85;;
15536;SDS011;7870;52.448;13.270;2023-07-22T10:32:39;5.75;;;3.05;;
15536;SDS011;7870;52.448;13.270;2023-07-22T10:36:05;6.22;;;3.45;;
15536;SDS011;7870;52.448;13.270;2023-07-22T10:39:31;5.30;;;3.60;;
15536;SDS011;7870;52.448;13.270;2023-07-22T10:43:05;7.70;;;3.40;;
15536;SDS011;7870;52.448;13.270;2023-07-22T10:46:39;5.38;;;3.53;;
15536;SDS011;7870;52.448;13.270;2023-07-22T10:50:05;4.40;;;3.28;;
15536;SDS011;7870;52.448;13.270;2023-07-22T10:53:48;7.30;;;3.45;;
15536;SDS011;7870;52.448;13.270;2023-07-22T10:57:22;4.60;;;3.28;;
15536;SDS011;7870;52.448;13.270;2023-07-22T11:00:47;5.55;;;3.50;;
15536;SDS011;7870;52.448;13.270;2023-07-22T11:04:25;5.32;;;2.92;;
15536;SDS011;7870;52.448;13.270;2023-07-22T11:07:45;4.65;;;3.25;;
15536;SDS011;7870;52.448;13.270;2023-07-22T11:11:10;6.90;;;3.45;;
15536;SDS011;7870;52.448;13.270;2023-07-22T11:14:39;4.72;;;3.72;;
15536;SDS011;7870;52.448;13.270;2023-07-22T11:18:04;6.05;;;3.78;;
15536;SDS011;7870;52.448;13.270;2023-07-22T11:21:31;5.15;;;3.35;;
15536;SDS011;7870;52.448;13.270;2023-07-22T11:24:56;4.65;;;3.55;;
15536;SDS011;7870;52.448;13.270;2023-07-22T11:28:21;7.45;;;3.63;;
15536;SDS011;7870;52.448;13.270;2023-07-22T11:31:48;5.25;;;3.58;;
15536;SDS011;7870;52.448;13.270;2023-07-22T11:35:16;5.22;;;3.28;;
15536;SDS011;7870;52.448;13.270;2023-07-22T11:38:41;5.78;;;3.60;;
15536;SDS011;7870;52.448;13.270;2023-07-22T11:42:07;4.93;;;3.42;;
15536;SDS011;7870;52.448;13.270;2023-07-22T11:45:33;5.13;;;3.72;;
15536;SDS011;7870;52.448;13.270;2023-07-22T11:48:58;4.60;;;3.15;;
15536;SDS011;7870;52.448;13.270;2023-07-22T11:52:23;5.05;;;3.63;;
15536;SDS011;7870;52.448;13.270;2023-07-22T11:55:52;5.22;;;3.10;;
15536;SDS011;7870;52.448;13.270;2023-07-22T11:59:17;4.93;;;3.13;;
15536;SDS011;7870;52.448;13.270;2023-07-22T12:02:42;5.38;;;3.50;;
15536;SDS011;7870;52.448;13.270;2023-07-22T12:06:07;4.88;;;3.60;;
15536;SDS011;7870;52.448;13.270;2023-07-22T12:09:32;5.05;;;3.72;;
15536;SDS011;7870;52.448;13.270;2023-07-22T12:13:00;5.32;;;3.22;;
15536;SDS011;7870;52.448;13.270;2023-07-22T12:16:41;6.97;;;3.53;;
15536;SDS011;7870;52.448;13.270;2023-07-22T12:20:31;5.72;;;3.75;;
15536;SDS011;7870;52.448;13.270;2023-07-22T12:23:57;5.07;;;3.90;;
15536;SDS011;7870;52.448;13.270;2023-07-22T12:27:22;4.72;;;3.35;;
15536;SDS011;7870;52.448;13.270;2023-07-22T12:30:47;4.90;;;3.50;;
15536;SDS011;7870;52.448;13.270;2023-07-22T12:34:12;4.50;;;3.40;;
15536;SDS011;7870;52.448;13.270;2023-07-22T12:37:39;6.43;;;3.83;;
15536;SDS011;7870;52.448;13.270;2023-07-22T12:41:04;5.65;;;3.50;;
15536;SDS011;7870;52.448;13.270;2023-07-22T12:44:30;5.03;;;3.75;;
15536;SDS011;7870;52.448;13.270;2023-07-22T12:47:55;4.93;;;3.60;;
15536;SDS011;7870;52.448;13.270;2023-07-22T12:51:20;5.90;;;4.05;;
15536;SDS011;7870;52.448;13.270;2023-07-22T12:54:45;5.32;;;3.50;;
15536;SDS011;7870;52.448;13.270;2023-07-22T12:58:10;5.70;;;3.53;;
15536;SDS011;7870;52.448;13.270;2023-07-22T13:01:35;5.45;;;3.95;;
15536;SDS011;7870;52.448;13.270;2023-07-22T13:05:01;6.53;;;3.30;;
15536;SDS011;7870;52.448;13.270;2023-07-22T13:08:26;5.53;;;3.90;;
15536;SDS011;7870;52.448;13.270;2023-07-22T13:11:51;4.82;;;3.42;;
15536;SDS011;7870;52.448;13.270;2023-07-22T13:15:16;5.45;;;3.50;;
15536;SDS011;7870;52.448;13.270;2023-07-22T13:18:41;4.75;;;3.55;;
15536;SDS011;7870;52.448;13.270;2023-07-22T13:22:06;3.58;;;2.90;;
15536;SDS011;7870;52.448;13.270;2023-07-22T13:25:31;4.50;;;3.30;;
15536;SDS011;7870;52.448;13.270;2023-07-22T13:28:56;4.15;;;2.90;;
15536;SDS011;7870;52.448;13.270;2023-07-22T13:32:21;3.85;;;3.13;;
15536;SDS011;7870;52.448;13.270;2023-07-22T13:35:46;4.88;;;3.35;;
15536;SDS011;7870;52.448;13.270;2023-07-22T13:39:11;4.90;;;3.30;;
15536;SDS011;7870;52.448;13.270;2023-07-22T13:42:37;4.65;;;3.50;;
15536;SDS011;7870;52.448;13.270;2023-07-22T13:46:02;6.55;;;3.70;;
15536;SDS011;7870;52.448;13.270;2023-07-22T13:49:28;4.63;;;3.42;;
15536;SDS011;7870;52.448;13.270;2023-07-22T13:52:53;4.75;;;3.65;;
15536;SDS011;7870;52.448;13.270;2023-07-22T13:56:18;5.03;;;3.25;;
15536;SDS011;7870;52.448;13.270;2023-07-22T13:59:43;6.18;;;3.50;;
15536;SDS011;7870;52.448;13.270;2023-07-22T14:03:08;6.85;;;3.00;;
15536;SDS011;7870;52.448;13.270;2023-07-22T14:06:33;3.83;;;2.90;;
15536;SDS011;7870;52.448;13.270;2023-07-22T14:09:58;5.45;;;4.00;;
15536;SDS011;7870;52.448;13.270;2023-07-22T14:13:24;4.35;;;3.20;;
15536;SDS011;7870;52.448;13.270;2023-07-22T14:16:55;6.18;;;3.22;;
15536;SDS011;7870;52.448;13.270;2023-07-22T14:20:20;4.90;;;3.70;;
15536;SDS011;7870;52.448;13.270;2023-07-22T14:23:45;5.35;;;3.78;;
15536;SDS011;7870;52.448;13.270;2023-07-22T14:27:10;4.13;;;2.92;;
15536;SDS011;7870;52.448;13.270;2023-07-22T14:30:35;4.38;;;3.25;;
15536;SDS011;7870;52.448;13.270;2023-07-22T14:34:00;4.53;;;3.55;;
15536;SDS011;7870;52.448;13.270;2023-07-22T14:37:25;4.07;;;3.17;;
15536;SDS011;7870;52.448;13.270;2023-07-22T14:40:50;6.20;;;3.78;;
15536;SDS011;7870;52.448;13.270;2023-07-22T14:44:15;6.50;;;3.85;;
15536;SDS011;7870;52.448;13.270;2023-07-22T14:47:40;7.28;;;4.22;;
15536;SDS011;7870;52.448;13.270;2023-07-22T14:51:06;4.57;;;3.00;;
15536;SDS011;7870;52.448;13.270;2023-07-22T14:54:31;5.68;;;3.88;;
15536;SDS011;7870;52.448;13.270;2023-07-22T14:57:56;5.88;;;4.05;;
15536;SDS011;7870;52.448;13.270;2023-07-22T15:01:21;5.55;;;3.97;;
15536;SDS011;7870;52.448;13.270;2023-07-22T15:04:47;5.50;;;4.05;;
15536;SDS011;7870;52.448;13.270;2023-07-22T15:08:13;6.43;;;3.55;;
15536;SDS011;7870;52.448;13.270;2023-07-22T15:11:38;39.20;;;5.63;;
15536;SDS011;7870;52.448;13.270;2023-07-22T15:15:03;4.63;;;3.35;;
15536;SDS011;7870;52.448;13.270;2023-07-22T15:18:28;5.30;;;3.50;;
15536;SDS011;7870;52.448;13.270;2023-07-22T15:21:53;5.38;;;4.07;;
15536;SDS011;7870;52.448;13.270;2023-07-22T15:25:19;4.78;;;3.92;;
15536;SDS011;7870;52.448;13.270;2023-07-22T15:28:44;4.72;;;3.33;;
15536;SDS011;7870;52.448;13.270;2023-07-22T15:32:09;5.93;;;4.03;;
15536;SDS011;7870;52.448;13.270;2023-07-22T15:35:34;4.72;;;3.53;;
15536;SDS011;7870;52.448;13.270;2023-07-22T15:38:59;5.05;;;3.97;;
15536;SDS011;7870;52.448;13.270;2023-07-22T15:42:24;6.00;;;3.58;;
15536;SDS011;7870;52.448;13.270;2023-07-22T15:45:49;6.15;;;3.85;;
15536;SDS011;7870;52.448;13.270;2023-07-22T15:49:14;10.63;;;3.70;;
15536;SDS011;7870;52.448;13.270;2023-07-22T15:52:39;5.22;;;4.05;;
15536;SDS011;7870;52.448;13.270;2023-07-22T15:56:04;6.90;;;3.67;;
15536;SDS011;7870;52.448;13.270;2023-07-22T15:59:29;4.88;;;3.60;;
15536;SDS011;7870;52.448;13.270;2023-07-22T16:02:55;6.97;;;3.80;;
15536;SDS011;7870;52.448;13.270;2023-07-22T16:06:20;5.63;;;3.50;;
15536;SDS011;7870;52.448;13.270;2023-07-22T16:09:45;5.03;;;3.35;;
15536;SDS011;7870;52.448;13.270;2023-07-22T16:13:11;5.30;;;3.47;;
15536;SDS011;7870;52.448;13.270;2023-07-22T16:16:36;5.70;;;3.35;;
15536;SDS011;7870;52.448;13.270;2023-07-22T16:20:02;5.10;;;3.85;;
15536;SDS011;7870;52.448;13.270;2023-07-22T16:23:27;3.75;;;2.70;;
15536;SDS011;7870;52.448;13.270;2023-07-22T16:26:52;5.88;;;3.30;;
15536;SDS011;7870;52.448;13.270;2023-07-22T16:30:18;6.47;;;3.30;;
15536;SDS011;7870;52.448;13.270;2023-07-22T16:33:43;5.00;;;3.10;;
15536;SDS011;7870;52.448;13.270;2023-07-22T16:37:08;21.15;;;4.57;;
15536;SDS011;7870;52.448;13.270;2023-07-22T16:40:33;4.07;;;3.22;;
15536;SDS011;7870;52.448;13.270;2023-07-22T16:43:58;11.30;;;4.03;;
15536;SDS011;7870;52.448;13.270;2023-07-22T16:47:23;5.00;;;3.38;;
15536;SDS011;7870;52.448;13.270;2023-07-22T16:50:48;4.53;;;3.53;;
15536;SDS011;7870;52.448;13.270;2023-07-22T16:54:13;4.13;;;3.33;;
15536;SDS011;7870;52.448;13.270;2023-07-22T16:57:40;5.40;;;3.33;;
15536;SDS011;7870;52.448;13.270;2023-07-22T17:01:05;5.35;;;3.58;;
15536;SDS011;7870;52.448;13.270;2023-07-22T17:04:30;5.15;;;3.58;;
15536;SDS011;7870;52.448;13.270;2023-07-22T17:07:55;7.00;;;3.25;;
15536;SDS011;7870;52.448;13.270;2023-07-22T17:11:20;3.53;;;2.65;;
15536;SDS011;7870;52.448;13.270;2023-07-22T17:14:45;5.07;;;2.95;;
15536;SDS011;7870;52.448;13.270;2023-07-22T17:18:10;4.78;;;3.03;;
15536;SDS011;7870;52.448;13.270;2023-07-22T17:21:35;3.35;;;2.55;;
15536;SDS011;7870;52.448;13.270;2023-07-22T17:25:00;4.78;;;3.13;;
15536;SDS011;7870;52.448;13.270;2023-07-22T17:28:25;4.22;;;2.90;;
15536;SDS011;7870;52.448;13.270;2023-07-22T17:31:50;5.30;;;2.92;;
15536;SDS011;7870;52.448;13.270;2023-07-22T17:35:17;4.30;;;3.10;;
15536;SDS011;7870;52.448;13.270;2023-07-22T17:38:43;3.10;;;2.35;;
15536;SDS011;7870;52.448;13.270;2023-07-22T17:42:08;5.25;;;2.88;;
15536;SDS011;7870;52.448;13.270;2023-07-22T17:45:33;3.55;;;2.60;;
15536;SDS011;7870;52.448;13.270;2023-07-22T17:48:58;4.00;;;3.05;;
15536;SDS011;7870;52.448;13.270;2023-07-22T17:52:23;4.25;;;3.10;;
15536;SDS011;7870;52.448;13.270;2023-07-22T17:55:48;5.13;;;3.08;;
15536;SDS011;7870;52.448;13.270;2023-07-22T17:59:14;4.97;;;3.25;;
15536;SDS011;7870;52.448;13.270;2023-07-22T18:02:40;5.85;;;3.72;;
15536;SDS011;7870;52.448;13.270;2023-07-22T18:06:05;5.68;;;3.00;;
15536;SDS011;7870;52.448;13.270;2023-07-22T18:09:30;5.10;;;3.38;;
15536;SDS011;7870;52.448;13.270;2023-07-22T18:12:55;5.95;;;3.58;;
15536;SDS011;7870;52.448;13.270;2023-07-22T18:16:20;4.75;;;3.53;;
15536;SDS011;7870;52.448;13.270;2023-07-22T18:19:45;5.25;;;3.65;;
15536;SDS011;7870;52.448;13.270;2023-07-22T18:23:10;6.32;;;4.55;;
15536;SDS011;7870;52.448;13.270;2023-07-22T18:26:35;6.18;;;3.78;;
15536;SDS011;7870;52.448;13.270;2023-07-22T18:30:00;6.03;;;3.78;;
15536;SDS011;7870;52.448;13.270;2023-07-22T18:33:25;4.45;;;3.55;;
15536;SDS011;7870;52.448;13.270;2023-07-22T18:36:51;5.97;;;4.07;;
15536;SDS011;7870;52.448;13.270;2023-07-22T18:40:16;5.82;;;3.90;;
15536;SDS011;7870;52.448;13.270;2023-07-22T18:43:41;5.63;;;4.30;;
15536;SDS011;7870;52.448;13.270;2023-07-22T18:47:06;7.50;;;4.70;;
15536;SDS011;7870;52.448;13.270;2023-07-22T18:50:31;5.32;;;3.28;;
15536;SDS011;7870;52.448;13.270;2023-07-22T18:53:59;6.57;;;4.30;;
15536;SDS011;7870;52.448;13.270;2023-07-22T18:57:24;5.75;;;4.00;;
15536;SDS011;7870;52.448;13.270;2023-07-22T19:00:49;5.07;;;3.72;;
15536;SDS011;7870;52.448;13.270;2023-07-22T19:04:14;5.65;;;4.05;;
15536;SDS011;7870;52.448;13.270;2023-07-22T19:07:39;5.50;;;3.92;;
15536;SDS011;7870;52.448;13.270;2023-07-22T19:11:04;6.43;;;5.00;;
15536;SDS011;7870;52.448;13.270;2023-07-22T19:14:30;9.10;;;4.75;;
15536;SDS011;7870;52.448;13.270;2023-07-22T19:17:56;6.20;;;4.28;;
15536;SDS011;7870;52.448;13.270;2023-07-22T19:21:21;6.90;;;4.97;;
15536;SDS011;7870;52.448;13.270;2023-07-22T19:24:47;7.30;;;5.25;;
15536;SDS011;7870;52.448;13.270;2023-07-22T19:28:12;7.63;;;5.18;;
15536;SDS011;7870;52.448;13.270;2023-07-22T19:31:38;10.48;;;5.32;;
15536;SDS011;7870;52.448;13.270;2023-07-22T19:35:03;6.47;;;4.65;;
15536;SDS011;7870;52.448;13.270;2023-07-22T19:38:35;7.45;;;4.97;;
15536;SDS011;7870;52.448;13.270;2023-07-22T19:42:00;8.00;;;5.05;;
15536;SDS011;7870;52.448;13.270;2023-07-22T19:45:25;9.23;;;5.80;;
15536;SDS011;7870;52.448;13.270;2023-07-22T19:48:50;6.72;;;5.30;;
15536;SDS011;7870;52.448;13.270;2023-07-22T19:52:15;12.38;;;5.55;;
15536;SDS011;7870;52.448;13.270;2023-07-22T19:55:42;7.25;;;5.60;;
15536;SDS011;7870;52.448;13.270;2023-07-22T19:59:07;8.38;;;5.70;;